Time;durP1;ratioP1;P1;durP2;ratioP2;P2;SDS_P1;SDS_P2;PMS_P1;PMS_P2;Temp;Humidity;BMP_temperature;BMP_pressure;BME280_temperature;BME280_humidity;BME280_pressure;Samples;Min_cycle;Max_cycle;Signal;HPM_P1;HPM_P2
2024/03/12 00:00:17;;;;;;;3.20;2.60;;;2.30;99.90;;;;;;2058460;28;20191;-72
2024/03/12 00:01:19;;;;;;;3.13;2.60;;;2.30;99.90;;;;;;2057346;28;20215;-71
2024/03/12 00:02:20;;;;;;;3.15;2.17;;;2.20;99.90;;;;;;2063054;28;20577;-72
2024/03/12 00:03:20;;;;;;;5.27;2.07;;;2.20;99.90;;;;;;2073453;28;20246;-71
2024/03/12 00:04:22;;;;;;;2.80;2.13;;;2.10;99.90;;;;;;2075876;28;20234;-71
2024/03/12 00:05:23;;;;;;;2.58;2.00;;;2.20;99.90;;;;;;2075418;28;20881;-71
2024/03/12 00:06:23;;;;;;;2.90;2.30;;;2.20;99.90;;;;;;2074593;28;20234;-72
2024/03/12 00:07:30;;;;;;;3.05;2.25;;;2.20;99.90;;;;;;2066487;28;20760;-71
2024/03/12 00:08:32;;;;;;;3.97;2.50;;;2.20;99.90;;;;;;2067339;28;20235;-70
2024/03/12 00:09:37;;;;;;;3.20;2.10;;;2.20;99.90;;;;;;2060267;28;20254;-71
2024/03/12 00:10:38;;;;;;;3.35;2.35;;;2.00;99.90;;;;;;2064876;28;20234;-72
2024/03/12 00:11:39;;;;;;;3.92;2.33;;;2.00;99.90;;;;;;2075763;28;20239;-73
2024/03/12 00:12:43;;;;;;;3.83;2.00;;;2.00;99.90;;;;;;2074654;28;20648;-74
2024/03/12 00:13:44;;;;;;;2.63;2.17;;;2.00;99.90;;;;;;2075300;28;20236;-74
2024/03/12 00:14:46;;;;;;;3.30;2.10;;;2.00;99.90;;;;;;2087720;28;20689;-74
2024/03/12 00:15:46;;;;;;;2.33;2.13;;;1.80;99.90;;;;;;2076980;28;20236;-74
2024/03/12 00:16:47;;;;;;;2.33;1.80;;;1.80;99.90;;;;;;2058662;28;20250;-72
2024/03/12 00:17:49;;;;;;;2.30;1.83;;;1.80;99.90;;;;;;2061999;28;20740;-72
2024/03/12 00:18:54;;;;;;;2.20;2.00;;;1.70;99.90;;;;;;2070772;28;20229;-73
2024/03/12 00:19:55;;;;;;;1.98;1.73;;;1.70;99.90;;;;;;2079403;28;20797;-73
2024/03/12 00:20:56;;;;;;;2.75;1.65;;;1.70;99.90;;;;;;2077755;28;20226;-74
2024/03/12 00:21:57;;;;;;;2.40;1.93;;;1.80;99.90;;;;;;2068116;28;20251;-75
2024/03/12 00:22:58;;;;;;;2.22;1.98;;;1.80;99.90;;;;;;2075937;28;20237;-73
2024/03/12 00:23:59;;;;;;;3.95;2.03;;;1.70;99.90;;;;;;2076307;28;20717;-73
2024/03/12 00:25:00;;;;;;;3.53;2.47;;;1.90;99.90;;;;;;2067680;28;20234;-73
2024/03/12 00:26:01;;;;;;;2.30;2.10;;;1.80;99.90;;;;;;2082668;28;20725;-71
2024/03/12 00:27:01;;;;;;;3.23;2.10;;;1.80;99.90;;;;;;2077210;28;20208;-72
2024/03/12 00:28:05;;;;;;;2.17;1.80;;;1.70;99.90;;;;;;2062260;28;20199;-74
2024/03/12 00:29:06;;;;;;;2.42;2.08;;;1.70;99.90;;;;;;2045293;28;20204;-72
2024/03/12 00:30:09;;;;;;;2.83;2.20;;;1.70;99.90;;;;;;2069218;28;20577;-73
2024/03/12 00:31:12;;;;;;;1.90;1.70;;;1.70;99.90;;;;;;2076679;28;20202;-74
2024/03/12 00:32:13;;;;;;;3.63;2.20;;;1.70;99.90;;;;;;2075805;28;20706;-69
2024/03/12 00:33:14;;;;;;;2.42;1.88;;;1.70;99.90;;;;;;2058806;28;20245;-73
2024/03/12 00:34:15;;;;;;;3.80;2.33;;;1.70;99.90;;;;;;2059462;28;20191;-73
2024/03/12 00:35:15;;;;;;;4.70;2.00;;;1.80;99.90;;;;;;2063155;28;20197;-73
2024/03/12 00:36:16;;;;;;;6.57;2.50;;;1.70;99.90;;;;;;2066228;28;20190;-75
2024/03/12 00:37:17;;;;;;;2.42;2.00;;;1.70;99.90;;;;;;2073017;28;20189;-71
2024/03/12 00:38:18;;;;;;;2.37;1.83;;;1.70;99.90;;;;;;2063016;28;20199;-72
2024/03/12 00:39:21;;;;;;;2.10;1.90;;;1.70;99.90;;;;;;2069423;28;20262;-71
2024/03/12 00:40:26;;;;;;;4.18;2.10;;;1.70;99.90;;;;;;2068986;28;20556;-71
2024/03/12 00:41:28;;;;;;;2.00;1.80;;;1.70;99.90;;;;;;2080760;28;20287;-72
2024/03/12 00:42:29;;;;;;;5.13;2.00;;;1.70;99.90;;;;;;2069653;28;20226;-71
2024/03/12 00:43:32;;;;;;;2.57;2.10;;;1.80;99.90;;;;;;2067536;28;20309;-72
2024/03/12 00:44:34;;;;;;;2.00;1.80;;;1.80;99.90;;;;;;2060177;28;20228;-72
2024/03/12 00:45:38;;;;;;;2.80;2.28;;;1.80;99.90;;;;;;2070266;28;20223;-71
2024/03/12 00:46:40;;;;;;;3.38;1.95;;;1.80;99.90;;;;;;2069645;28;20295;-71
2024/03/12 00:47:41;;;;;;;2.25;1.75;;;1.80;99.90;;;;;;2070473;28;20690;-72
2024/03/12 00:48:42;;;;;;;2.53;2.33;;;1.80;99.90;;;;;;2067787;28;20233;-71
2024/03/12 00:49:45;;;;;;;2.37;1.70;;;1.80;99.90;;;;;;2072048;28;20217;-72
2024/03/12 00:50:48;;;;;;;4.53;1.98;;;1.80;99.90;;;;;;2075293;28;20241;-74
2024/03/12 00:51:48;;;;;;;2.65;2.22;;;1.80;99.90;;;;;;2074898;28;20235;-73
2024/03/12 00:52:53;;;;;;;1.90;1.70;;;1.80;99.90;;;;;;2075067;28;20797;-72
2024/03/12 00:53:54;;;;;;;2.30;2.00;;;1.70;99.90;;;;;;2066033;28;20312;-72
2024/03/12 00:54:55;;;;;;;2.33;1.90;;;1.70;99.90;;;;;;2067850;28;20311;-71
2024/03/12 00:55:55;;;;;;;2.37;1.90;;;1.70;99.90;;;;;;2066854;28;20229;-71
2024/03/12 00:56:56;;;;;;;2.23;1.87;;;1.70;99.90;;;;;;2074815;28;20743;-71
2024/03/12 00:57:58;;;;;;;2.57;1.83;;;1.70;99.90;;;;;;2075323;28;20241;-72
2024/03/12 00:58:59;;;;;;;1.95;1.65;;;1.70;99.90;;;;;;2067214;28;20304;-71
2024/03/12 01:00:01;;;;;;;1.90;1.70;;;1.60;99.90;;;;;;2066415;28;20225;-71
2024/03/12 01:01:03;;;;;;;3.30;2.33;;;1.60;99.90;;;;;;2074214;28;20229;-70
2024/03/12 01:02:04;;;;;;;2.33;1.92;;;1.60;99.90;;;;;;2081836;28;20752;-71
2024/03/12 01:03:08;;;;;;;2.90;2.20;;;1.60;99.90;;;;;;2075541;28;20193;-72
2024/03/12 01:04:08;;;;;;;2.47;2.10;;;1.60;99.90;;;;;;2072395;28;20607;-72
2024/03/12 01:05:12;;;;;;;2.60;1.83;;;1.60;99.90;;;;;;2068811;28;20190;-72
2024/03/12 01:06:13;;;;;;;1.98;1.60;;;1.50;99.90;;;;;;2069511;28;20268;-72
2024/03/12 01:07:16;;;;;;;2.45;1.85;;;1.40;99.90;;;;;;2067840;28;20279;-72
2024/03/12 01:08:16;;;;;;;4.30;1.88;;;1.40;99.90;;;;;;2067372;28;20183;-73
2024/03/12 01:09:17;;;;;;;3.60;2.10;;;1.30;99.90;;;;;;2067317;28;20263;-72
2024/03/12 01:10:20;;;;;;;1.93;1.67;;;1.40;99.90;;;;;;2067202;28;20658;-72
2024/03/12 01:11:22;;;;;;;4.53;2.10;;;1.40;99.90;;;;;;2071774;28;20247;-72
2024/03/12 01:12:24;;;;;;;2.55;1.92;;;1.40;99.90;;;;;;2074438;28;20933;-72
2024/03/12 01:13:26;;;;;;;2.25;1.92;;;1.40;99.90;;;;;;2063693;28;20696;-72
2024/03/12 01:14:28;;;;;;;2.28;2.08;;;1.40;99.90;;;;;;2075142;28;20222;-72
2024/03/12 01:15:29;;;;;;;2.10;1.90;;;1.40;99.90;;;;;;2074869;28;20229;-72
2024/03/12 01:16:29;;;;;;;3.30;2.30;;;1.40;99.90;;;;;;2067150;28;20229;-72
2024/03/12 01:17:30;;;;;;;2.97;2.20;;;1.50;99.90;;;;;;2066735;28;20260;-72
2024/03/12 01:18:31;;;;;;;2.10;1.90;;;1.50;99.90;;;;;;2063348;28;20253;-72
2024/03/12 01:19:35;;;;;;;4.00;2.00;;;1.50;99.90;;;;;;2074013;28;20316;-71
2024/03/12 01:20:36;;;;;;;2.47;1.90;;;1.50;99.90;;;;;;2074915;28;20240;-71
2024/03/12 01:21:37;;;;;;;2.37;2.13;;;1.40;99.90;;;;;;2075461;28;20221;-72
2024/03/12 01:22:38;;;;;;;2.88;2.15;;;1.50;99.90;;;;;;2074630;28;20312;-71
2024/03/12 01:23:39;;;;;;;3.33;2.10;;;1.40;99.90;;;;;;2067066;28;20305;-72
2024/03/12 01:24:40;;;;;;;2.08;1.80;;;1.40;99.90;;;;;;2056004;28;20235;-71
2024/03/12 01:25:41;;;;;;;2.07;1.87;;;1.40;99.90;;;;;;2068624;28;20232;-72
2024/03/12 01:26:42;;;;;;;2.53;1.80;;;1.40;99.90;;;;;;2088096;28;20239;-74
2024/03/12 01:27:42;;;;;;;2.40;1.90;;;1.30;99.90;;;;;;2080093;28;20225;-72
2024/03/12 01:28:43;;;;;;;3.30;2.00;;;1.20;99.90;;;;;;2072345;28;20217;-72
2024/03/12 01:29:44;;;;;;;2.93;2.33;;;1.30;99.90;;;;;;2074383;28;20225;-72
2024/03/12 01:30:44;;;;;;;2.43;2.23;;;1.40;99.90;;;;;;2069051;28;20236;-72
2024/03/12 01:31:45;;;;;;;3.67;2.07;;;1.30;99.90;;;;;;2074347;28;20770;-71
2024/03/12 01:32:51;;;;;;;3.78;2.40;;;1.30;99.90;;;;;;2070095;28;20221;-72
2024/03/12 01:33:51;;;;;;;3.72;1.67;;;1.40;99.90;;;;;;2074854;28;20297;-72
2024/03/12 01:34:52;;;;;;;3.47;2.10;;;1.30;99.90;;;;;;2074271;28;20707;-72
2024/03/12 01:36:05;;;;;;;2.10;1.90;;;1.30;99.90;;;;;;2075192;28;20225;-73
2024/03/12 01:37:06;;;;;;;2.63;1.88;;;1.30;99.90;;;;;;2066862;28;20247;-73
2024/03/12 01:38:08;;;;;;;2.42;2.10;;;1.40;99.90;;;;;;2079019;28;20555;-73
2024/03/12 01:39:09;;;;;;;2.38;2.03;;;1.30;99.90;;;;;;2079800;28;20275;-72
2024/03/12 01:40:25;;;;;;;2.27;1.90;;;1.40;99.90;;;;;;2071827;28;20190;-72
2024/03/12 01:41:26;;;;;;;3.47;2.08;;;1.30;99.90;;;;;;2062132;28;20305;-73
2024/03/12 01:42:27;;;;;;;2.80;2.22;;;1.30;99.90;;;;;;2054566;28;20223;-72
2024/03/12 01:43:28;;;;;;;2.57;2.10;;;1.40;99.90;;;;;;2067364;28;20701;-73
2024/03/12 01:44:30;;;;;;;4.37;2.40;;;1.30;99.90;;;;;;2075203;28;20261;-72
2024/03/12 01:45:33;;;;;;;2.15;1.70;;;1.40;99.90;;;;;;2071201;28;20225;-73
2024/03/12 01:46:36;;;;;;;2.72;2.30;;;1.30;99.90;;;;;;2062312;28;20222;-73
2024/03/12 01:47:38;;;;;;;3.75;2.00;;;1.20;99.90;;;;;;2054339;28;20219;-72
2024/03/12 01:48:39;;;;;;;3.63;2.08;;;1.10;99.90;;;;;;2075999;28;20221;-72
2024/03/12 01:49:40;;;;;;;3.07;2.17;;;1.20;99.90;;;;;;2075952;28;20237;-72
2024/03/12 01:50:41;;;;;;;2.57;2.13;;;1.10;99.90;;;;;;2068039;28;20269;-70
2024/03/12 01:51:41;;;;;;;3.50;2.72;;;1.10;99.90;;;;;;2079989;28;20228;-72
2024/03/12 01:52:43;;;;;;;2.70;2.43;;;1.10;99.90;;;;;;2081004;28;20240;-72
2024/03/12 01:53:45;;;;;;;2.63;2.13;;;1.10;99.90;;;;;;2066231;28;20233;-72
2024/03/12 01:54:46;;;;;;;3.17;2.63;;;1.10;99.90;;;;;;2075107;28;20229;-72
2024/03/12 01:55:47;;;;;;;3.37;2.80;;;1.10;99.90;;;;;;2087404;28;20231;-72
2024/03/12 01:56:48;;;;;;;2.73;2.37;;;1.10;99.90;;;;;;2081670;28;20227;-72
2024/03/12 01:57:52;;;;;;;4.07;2.20;;;1.00;99.90;;;;;;2076260;28;20232;-72
2024/03/12 01:58:53;;;;;;;4.80;3.05;;;1.00;99.90;;;;;;2066670;28;20234;-73
2024/03/12 01:59:54;;;;;;;3.25;2.20;;;0.90;99.90;;;;;;2075380;28;20715;-73
2024/03/12 02:00:55;;;;;;;2.60;2.10;;;0.90;99.90;;;;;;2066341;28;20233;-72
2024/03/12 02:02:00;;;;;;;5.05;2.42;;;1.00;99.90;;;;;;2073592;28;20264;-73
2024/03/12 02:03:01;;;;;;;3.08;2.40;;;1.00;99.90;;;;;;2071343;28;20222;-72
2024/03/12 02:04:01;;;;;;;4.57;2.47;;;0.90;99.90;;;;;;2063925;28;20234;-73
2024/03/12 02:05:03;;;;;;;2.93;2.30;;;0.90;99.90;;;;;;2057918;28;20191;-73
2024/03/12 02:06:04;;;;;;;2.55;2.10;;;0.80;99.90;;;;;;2065513;28;20173;-73
2024/03/12 02:07:05;;;;;;;4.38;2.60;;;0.90;99.90;;;;;;2073698;28;20675;-72
2024/03/12 02:08:06;;;;;;;3.17;1.90;;;0.90;99.90;;;;;;2074105;28;20276;-73
2024/03/12 02:09:06;;;;;;;3.63;2.20;;;0.90;99.90;;;;;;2064592;28;20277;-73
2024/03/12 02:10:08;;;;;;;2.13;1.63;;;1.00;99.90;;;;;;2066044;28;20194;-73
2024/03/12 02:11:11;;;;;;;2.92;2.40;;;1.10;99.90;;;;;;2073920;28;20667;-72
2024/03/12 02:12:12;;;;;;;2.85;2.42;;;1.20;99.90;;;;;;2072584;28;20212;-73
2024/03/12 02:13:13;;;;;;;3.87;2.80;;;1.20;99.90;;;;;;2062923;28;20190;-71
2024/03/12 02:14:16;;;;;;;3.73;2.40;;;1.20;99.90;;;;;;2066271;28;20197;-73
2024/03/12 02:15:17;;;;;;;3.15;2.53;;;1.20;99.90;;;;;;2066193;28;20194;-72
2024/03/12 02:16:18;;;;;;;3.85;2.65;;;1.30;99.90;;;;;;2076524;28;20671;-73
2024/03/12 02:17:19;;;;;;;4.23;2.60;;;1.30;99.90;;;;;;2089082;28;20176;-73
2024/03/12 02:18:19;;;;;;;6.50;3.37;;;1.30;99.90;;;;;;2075109;28;20228;-73
2024/03/12 02:19:20;;;;;;;3.50;2.87;;;1.30;99.90;;;;;;2071159;28;21800;-73
2024/03/12 02:20:21;;;;;;;6.57;2.90;;;1.30;99.90;;;;;;2075061;28;20234;-72
2024/03/12 02:21:24;;;;;;;4.77;2.93;;;1.30;99.90;;;;;;2081740;28;20232;-71
2024/03/12 02:22:25;;;;;;;3.60;2.60;;;1.30;99.90;;;;;;2073125;28;20563;-71
2024/03/12 02:23:42;;;;;;;2.88;2.17;;;1.20;99.90;;;;;;2065432;28;20305;-72
2024/03/12 02:24:43;;;;;;;3.45;2.33;;;1.20;99.90;;;;;;2073397;28;20301;-71
2024/03/12 02:25:44;;;;;;;4.57;2.77;;;1.30;99.90;;;;;;2076026;28;20283;-72
2024/03/12 02:26:44;;;;;;;2.73;2.27;;;1.30;99.90;;;;;;2074017;28;20231;-73
2024/03/12 02:27:45;;;;;;;2.33;1.93;;;1.30;99.90;;;;;;2074020;28;20224;-72
2024/03/12 02:28:46;;;;;;;9.17;2.67;;;1.30;99.90;;;;;;2067682;28;20230;-73
2024/03/12 02:29:49;;;;;;;5.83;3.20;;;1.30;99.90;;;;;;2066604;28;20233;-73
2024/03/12 02:30:50;;;;;;;4.00;3.17;;;1.30;99.90;;;;;;2077060;28;20235;-73
2024/03/12 02:31:52;;;;;;;2.60;2.07;;;1.40;99.90;;;;;;2080720;28;20791;-72
2024/03/12 02:32:53;;;;;;;5.38;2.60;;;1.50;99.90;;;;;;2076277;28;20221;-72
2024/03/12 02:33:54;;;;;;;3.40;2.10;;;1.50;99.90;;;;;;2070422;28;20252;-71
2024/03/12 02:34:55;;;;;;;2.65;2.40;;;1.50;99.90;;;;;;2079284;28;20291;-72
2024/03/12 02:35:55;;;;;;;3.17;2.40;;;1.60;99.90;;;;;;2072907;28;20223;-72
2024/03/12 02:36:56;;;;;;;3.80;1.93;;;1.60;99.90;;;;;;2067848;28;20222;-72
2024/03/12 02:37:57;;;;;;;3.30;2.10;;;1.50;99.90;;;;;;2066047;28;20237;-72
2024/03/12 02:38:57;;;;;;;2.80;1.70;;;1.50;99.90;;;;;;2052811;28;20229;-72
2024/03/12 02:39:58;;;;;;;2.33;1.80;;;1.40;99.90;;;;;;2065873;28;20232;-72
2024/03/12 02:40:59;;;;;;;2.30;2.10;;;1.40;99.90;;;;;;2073859;28;20758;-72
2024/03/12 02:42:00;;;;;;;2.33;1.73;;;1.40;99.90;;;;;;2065262;28;20250;-72
2024/03/12 02:43:00;;;;;;;1.97;1.63;;;1.50;99.90;;;;;;2067084;28;20233;-71
2024/03/12 02:44:01;;;;;;;3.07;1.97;;;1.50;99.90;;;;;;2064347;28;20276;-72
2024/03/12 02:45:02;;;;;;;3.10;2.30;;;1.50;99.90;;;;;;2065393;28;20187;-71
2024/03/12 02:46:04;;;;;;;2.95;2.20;;;1.50;99.90;;;;;;2064418;28;20599;-71
2024/03/12 02:47:05;;;;;;;3.63;2.40;;;1.50;99.90;;;;;;2062252;28;20205;-71
2024/03/12 02:48:08;;;;;;;2.30;2.10;;;1.50;99.90;;;;;;2074442;28;20183;-73
2024/03/12 02:49:13;;;;;;;3.67;2.75;;;1.50;99.90;;;;;;2064457;28;20272;-73
2024/03/12 02:50:15;;;;;;;3.60;2.80;;;1.50;99.90;;;;;;2059883;28;20198;-72
2024/03/12 02:51:16;;;;;;;3.83;2.05;;;1.60;99.90;;;;;;2057851;28;20219;-72
2024/03/12 02:52:17;;;;;;;3.22;2.17;;;1.50;99.90;;;;;;2058166;28;20187;-72
2024/03/12 02:53:18;;;;;;;3.60;2.30;;;1.60;99.90;;;;;;2064130;28;20212;-72
2024/03/12 02:54:20;;;;;;;3.43;2.40;;;1.60;99.90;;;;;;2064169;28;20209;-72
2024/03/12 02:55:21;;;;;;;3.63;3.22;;;1.70;99.90;;;;;;2066695;28;20231;-72
2024/03/12 02:56:22;;;;;;;3.73;2.57;;;1.70;99.90;;;;;;2059939;28;20286;-72
2024/03/12 02:57:22;;;;;;;3.07;2.33;;;1.60;99.90;;;;;;2059912;28;20261;-72
2024/03/12 02:58:25;;;;;;;3.57;2.40;;;1.60;99.90;;;;;;2050411;28;20963;-72
2024/03/12 02:59:27;;;;;;;2.47;2.20;;;1.60;99.90;;;;;;2065706;28;20304;-72
2024/03/12 03:00:28;;;;;;;2.92;2.10;;;1.60;99.90;;;;;;2070788;28;20226;-72
2024/03/12 03:01:29;;;;;;;3.75;2.65;;;1.50;99.90;;;;;;2067913;28;20236;-72
2024/03/12 03:02:30;;;;;;;2.57;1.90;;;1.60;99.90;;;;;;2067616;28;20225;-72
2024/03/12 03:03:30;;;;;;;3.03;2.20;;;1.60;99.90;;;;;;2075013;28;20226;-72
2024/03/12 03:04:36;;;;;;;1.97;1.70;;;1.70;99.90;;;;;;2078553;28;20227;-72
2024/03/12 03:05:36;;;;;;;2.33;1.80;;;1.70;99.90;;;;;;2080483;28;20222;-72
2024/03/12 03:06:37;;;;;;;4.13;2.27;;;1.70;99.90;;;;;;2081833;28;20302;-72
2024/03/12 03:07:42;;;;;;;2.60;1.90;;;1.80;99.90;;;;;;2074048;28;20224;-72
2024/03/12 03:08:43;;;;;;;2.22;1.92;;;1.70;99.90;;;;;;2067801;28;20700;-71
2024/03/12 03:09:44;;;;;;;2.87;1.73;;;1.80;99.90;;;;;;2072138;28;20233;-72
2024/03/12 03:10:45;;;;;;;2.30;1.80;;;1.80;99.90;;;;;;2077362;28;20252;-74
2024/03/12 03:11:46;;;;;;;2.50;1.97;;;1.90;99.90;;;;;;2086824;28;20224;-74
2024/03/12 03:12:47;;;;;;;3.20;1.90;;;1.90;99.90;;;;;;2087651;28;20631;-72
2024/03/12 03:13:47;;;;;;;3.20;2.53;;;1.90;99.90;;;;;;2073037;28;20232;-72
2024/03/12 03:14:48;;;;;;;2.93;2.10;;;1.90;99.90;;;;;;2066637;28;20297;-71
2024/03/12 03:15:49;;;;;;;3.63;2.30;;;2.00;99.90;;;;;;2077109;28;20691;-71
2024/03/12 03:16:49;;;;;;;3.33;2.00;;;1.90;99.90;;;;;;2074255;28;20230;-72
2024/03/12 03:17:50;;;;;;;3.33;1.90;;;2.00;99.90;;;;;;2071890;28;20695;-72
2024/03/12 03:18:53;;;;;;;2.53;1.97;;;2.10;99.90;;;;;;2071560;28;20298;-73
2024/03/12 03:19:53;;;;;;;4.78;1.90;;;2.10;99.90;;;;;;2079172;28;20230;-73
2024/03/12 03:20:54;;;;;;;2.30;1.80;;;2.10;99.90;;;;;;2076993;28;20229;-72
2024/03/12 03:21:54;;;;;;;2.90;1.97;;;2.20;99.90;;;;;;2076848;28;20256;-72
2024/03/12 03:22:55;;;;;;;3.23;2.40;;;2.30;99.90;;;;;;2072489;28;20276;-73
2024/03/12 03:23:57;;;;;;;2.37;2.10;;;2.40;99.90;;;;;;2064953;28;20223;-72
2024/03/12 03:24:58;;;;;;;2.47;2.13;;;2.30;99.90;;;;;;2071841;28;20230;-73
2024/03/12 03:25:58;;;;;;;2.53;2.33;;;2.40;99.90;;;;;;2064123;28;20257;-72
2024/03/12 03:26:59;;;;;;;4.27;2.53;;;2.40;99.90;;;;;;2072273;28;20236;-72
2024/03/12 03:28:00;;;;;;;5.23;2.90;;;2.30;99.90;;;;;;2073929;28;20682;-72
2024/03/12 03:29:00;;;;;;;3.50;2.23;;;2.30;99.90;;;;;;2073768;28;20235;-71
2024/03/12 03:30:02;;;;;;;2.60;1.77;;;2.40;99.90;;;;;;2072341;28;20244;-73
2024/03/12 03:31:03;;;;;;;3.30;2.45;;;2.40;99.90;;;;;;2073128;28;20191;-72
2024/03/12 03:32:06;;;;;;;5.32;2.40;;;2.50;99.90;;;;;;2070049;28;20218;-71
2024/03/12 03:33:08;;;;;;;3.83;1.85;;;2.60;99.90;;;;;;2072375;28;20189;-73
2024/03/12 03:34:10;;;;;;;4.32;2.63;;;2.70;99.90;;;;;;2072353;28;20187;-73
2024/03/12 03:35:11;;;;;;;3.53;2.53;;;2.90;99.90;;;;;;2073863;28;20255;-73
2024/03/12 03:36:14;;;;;;;4.73;2.40;;;3.00;99.90;;;;;;2063843;28;20196;-75
2024/03/12 03:37:15;;;;;;;3.45;2.20;;;2.90;99.90;;;;;;2064656;28;20648;-74
2024/03/12 03:38:16;;;;;;;3.70;2.07;;;2.80;99.90;;;;;;2074199;28;20210;-74
2024/03/12 03:39:16;;;;;;;5.27;2.10;;;2.70;99.90;;;;;;2073354;28;20681;-72
2024/03/12 03:40:22;;;;;;;2.20;2.00;;;2.70;99.90;;;;;;2072712;28;20212;-73
2024/03/12 03:41:22;;;;;;;4.13;2.30;;;2.80;99.90;;;;;;2070538;28;20231;-73
2024/03/12 03:42:23;;;;;;;5.03;2.40;;;2.80;99.90;;;;;;2063487;28;20311;-73
2024/03/12 03:43:24;;;;;;;5.27;2.90;;;2.90;99.90;;;;;;2060183;28;20346;-72
2024/03/12 03:44:24;;;;;;;3.43;1.80;;;2.90;99.90;;;;;;2072079;28;20259;-73
2024/03/12 03:45:25;;;;;;;4.07;2.40;;;2.90;99.90;;;;;;2065120;28;20287;-73
2024/03/12 03:46:26;;;;;;;2.80;2.10;;;3.10;99.90;;;;;;2056303;28;20910;-73
2024/03/12 03:47:33;;;;;;;3.20;2.17;;;3.20;99.90;;;;;;2062910;28;20256;-75
2024/03/12 03:48:34;;;;;;;3.00;2.38;;;3.40;99.90;;;;;;2058883;28;20256;-73
2024/03/12 03:49:35;;;;;;;4.40;2.33;;;3.50;99.90;;;;;;2057717;28;20221;-73
2024/03/12 03:50:36;;;;;;;4.10;2.00;;;3.60;99.90;;;;;;2056702;28;20472;-73
2024/03/12 03:51:37;;;;;;;3.23;2.23;;;3.60;99.90;;;;;;2057079;28;20226;-71
2024/03/12 03:52:38;;;;;;;4.85;2.80;;;3.60;99.90;;;;;;2058151;28;20309;-74
2024/03/12 03:53:40;;;;;;;6.50;4.20;;;3.70;99.90;;;;;;2062099;28;20243;-74
2024/03/12 03:54:40;;;;;;;4.90;2.95;;;3.70;99.90;;;;;;2061820;28;20299;-75
2024/03/12 03:55:41;;;;;;;4.27;2.33;;;3.70;99.90;;;;;;2064861;28;20232;-73
2024/03/12 03:56:42;;;;;;;3.87;2.47;;;3.70;99.90;;;;;;2072843;28;20229;-73
2024/03/12 03:57:43;;;;;;;3.45;2.60;;;3.70;99.90;;;;;;2074815;28;20733;-73
2024/03/12 03:58:43;;;;;;;3.90;2.93;;;3.70;99.90;;;;;;2073267;28;20235;-74
2024/03/12 03:59:45;;;;;;;3.90;2.37;;;3.80;99.90;;;;;;2072123;28;20311;-73
2024/03/12 04:00:45;;;;;;;7.15;2.30;;;3.80;99.90;;;;;;2072399;28;20314;-75
2024/03/12 04:01:49;;;;;;;4.93;2.50;;;3.80;99.90;;;;;;2077702;28;20232;-74
2024/03/12 04:02:50;;;;;;;2.13;1.83;;;3.90;99.90;;;;;;2077155;28;20228;-73
2024/03/12 04:03:53;;;;;;;2.67;2.05;;;4.00;99.90;;;;;;2065310;28;20244;-72
2024/03/12 04:04:54;;;;;;;5.20;3.08;;;4.00;99.90;;;;;;2072162;28;20304;-73
2024/03/12 04:05:56;;;;;;;5.60;2.60;;;4.00;99.90;;;;;;2071076;28;20689;-74
2024/03/12 04:06:57;;;;;;;5.15;2.88;;;4.00;99.90;;;;;;2063976;28;20213;-73
2024/03/12 04:07:59;;;;;;;3.13;2.40;;;4.00;99.90;;;;;;2056276;28;20697;-74
2024/03/12 04:09:04;;;;;;;4.93;2.78;;;4.00;99.90;;;;;;2062030;28;20604;-73
2024/03/12 04:10:10;;;;;;;2.17;1.98;;;4.00;99.90;;;;;;2054028;28;20606;-72
2024/03/12 04:11:11;;;;;;;2.88;1.77;;;4.10;99.90;;;;;;2072156;28;20860;-73
2024/03/12 04:12:11;;;;;;;2.70;1.87;;;4.20;99.90;;;;;;2073015;28;20213;-72
2024/03/12 04:13:14;;;;;;;3.93;1.90;;;4.20;99.90;;;;;;2064508;28;20581;-73
2024/03/12 04:14:15;;;;;;;2.33;1.58;;;4.20;99.90;;;;;;2064971;28;20181;-73
2024/03/12 04:15:16;;;;;;;2.47;1.40;;;4.30;99.90;;;;;;2066949;28;20577;-73
2024/03/12 04:16:16;;;;;;;3.03;1.70;;;4.30;99.90;;;;;;2073912;28;20192;-73
2024/03/12 04:17:19;;;;;;;3.13;2.03;;;4.40;99.90;;;;;;2072794;28;20208;-73
2024/03/12 04:18:19;;;;;;;2.45;1.50;;;4.50;99.90;;;;;;2066378;28;20197;-73
2024/03/12 04:19:20;;;;;;;5.53;1.80;;;4.50;99.90;;;;;;2065302;28;20217;-73
2024/03/12 04:20:21;;;;;;;3.30;1.40;;;4.60;99.90;;;;;;2065465;28;20608;-73
2024/03/12 04:21:21;;;;;;;2.93;1.43;;;4.70;99.90;;;;;;2063511;28;20245;-72
2024/03/12 04:22:22;;;;;;;3.23;1.40;;;4.60;99.90;;;;;;2058368;28;20235;-73
2024/03/12 04:23:23;;;;;;;2.55;1.70;;;4.70;99.90;;;;;;2068680;28;20280;-73
2024/03/12 04:24:27;;;;;;;1.53;1.40;;;4.70;99.90;;;;;;2057775;28;20275;-72
2024/03/12 04:25:28;;;;;;;2.38;1.30;;;4.80;99.90;;;;;;2065282;28;20226;-73
2024/03/12 04:26:29;;;;;;;2.47;1.30;;;4.90;99.90;;;;;;2073004;28;20388;-72
2024/03/12 04:27:29;;;;;;;1.50;1.30;;;4.90;99.90;;;;;;2072947;28;20305;-72
2024/03/12 04:28:30;;;;;;;1.33;1.07;;;4.90;99.90;;;;;;2069463;28;20292;-72
2024/03/12 04:29:31;;;;;;;1.30;1.10;;;4.90;99.90;;;;;;2065449;28;20305;-73
2024/03/12 04:30:32;;;;;;;2.03;1.40;;;4.90;99.90;;;;;;2066838;28;20561;-73
2024/03/12 04:31:33;;;;;;;3.08;1.30;;;4.90;99.90;;;;;;2066457;28;20284;-73
2024/03/12 04:32:35;;;;;;;1.48;1.20;;;5.00;99.90;;;;;;2059092;28;20260;-73
2024/03/12 04:33:36;;;;;;;1.77;1.02;;;5.00;99.90;;;;;;2065905;28;20754;-73
2024/03/12 04:34:37;;;;;;;1.40;1.30;;;5.10;99.90;;;;;;2073791;28;20624;-73
2024/03/12 04:35:38;;;;;;;1.47;1.37;;;5.10;99.90;;;;;;2078830;28;20224;-73
2024/03/12 04:36:38;;;;;;;1.47;1.00;;;5.10;99.90;;;;;;2077393;28;20579;-73
2024/03/12 04:37:39;;;;;;;1.30;1.00;;;5.10;99.90;;;;;;2064171;28;20604;-73
2024/03/12 04:38:40;;;;;;;2.03;1.47;;;5.10;99.90;;;;;;2058538;28;20285;-73
2024/03/12 04:39:40;;;;;;;1.57;1.47;;;5.10;99.90;;;;;;2059961;28;20222;-73
2024/03/12 04:40:41;;;;;;;2.53;1.80;;;5.20;99.90;;;;;;2061570;28;20221;-73
2024/03/12 04:41:42;;;;;;;3.43;2.30;;;5.20;99.90;;;;;;2063931;28;20257;-73
2024/03/12 04:42:45;;;;;;;1.70;1.50;;;5.20;99.90;;;;;;2075291;28;20547;-74
2024/03/12 04:43:47;;;;;;;2.75;1.60;;;5.30;99.90;;;;;;2069351;28;20320;-72
2024/03/12 04:44:48;;;;;;;2.88;1.58;;;5.30;99.90;;;;;;2060042;28;20215;-73
2024/03/12 04:45:48;;;;;;;1.60;1.30;;;5.40;99.90;;;;;;2073050;28;20224;-73
2024/03/12 04:46:49;;;;;;;1.47;1.37;;;5.40;99.90;;;;;;2078491;28;20723;-73
2024/03/12 04:47:49;;;;;;;2.20;1.70;;;5.40;99.90;;;;;;2075775;28;20240;-73
2024/03/12 04:48:50;;;;;;;2.17;1.60;;;5.50;99.90;;;;;;2073501;28;20272;-73
2024/03/12 04:49:52;;;;;;;1.87;1.63;;;5.50;99.90;;;;;;2069147;28;20228;-73
2024/03/12 04:50:53;;;;;;;3.45;1.73;;;5.60;99.90;;;;;;2077243;28;20706;-72
2024/03/12 04:51:55;;;;;;;2.43;1.70;;;5.60;99.90;;;;;;2074972;28;20224;-72
2024/03/12 04:52:55;;;;;;;2.47;1.70;;;5.60;99.90;;;;;;2066982;28;20248;-73
2024/03/12 04:53:57;;;;;;;1.43;1.33;;;5.60;99.90;;;;;;2066448;28;20595;-72
2024/03/12 04:54:58;;;;;;;2.75;1.63;;;5.50;99.90;;;;;;2072828;28;20312;-73
2024/03/12 04:56:00;;;;;;;1.20;1.10;;;5.50;99.90;;;;;;2073659;28;20611;-73
2024/03/12 04:57:00;;;;;;;1.20;1.00;;;5.40;99.90;;;;;;2073836;28;20278;-72
2024/03/12 04:58:01;;;;;;;0.83;0.80;;;5.30;99.90;;;;;;2065577;28;20637;-72
2024/03/12 04:59:02;;;;;;;1.10;1.00;;;5.30;99.90;;;;;;2067169;28;20189;-70
2024/03/12 05:00:13;;;;;;;1.67;1.30;;;5.20;99.90;;;;;;2065353;28;20204;-72
2024/03/12 05:01:13;;;;;;;1.10;0.80;;;5.10;99.90;;;;;;2074272;28;20802;-71
2024/03/12 05:02:15;;;;;;;1.40;1.00;;;5.10;99.90;;;;;;2068731;28;20197;-73
2024/03/12 05:03:16;;;;;;;1.40;1.00;;;5.10;99.90;;;;;;2065667;28;20193;-71
2024/03/12 05:04:16;;;;;;;1.43;1.00;;;5.10;99.90;;;;;;2073988;28;20174;-73
2024/03/12 05:05:21;;;;;;;1.30;1.00;;;5.10;99.90;;;;;;2074390;28;20694;-73
2024/03/12 05:06:22;;;;;;;2.13;1.10;;;5.00;99.90;;;;;;2061519;28;21069;-73
2024/03/12 05:07:23;;;;;;;2.20;1.60;;;5.10;99.90;;;;;;2051622;28;20231;-73
2024/03/12 05:08:23;;;;;;;2.97;2.37;;;5.20;99.90;;;;;;2067022;28;20260;-73
2024/03/12 05:09:24;;;;;;;3.07;1.90;;;5.20;99.90;;;;;;2063291;28;20297;-73
2024/03/12 05:10:26;;;;;;;1.80;1.57;;;5.20;99.90;;;;;;2066968;28;20313;-73
2024/03/12 05:11:26;;;;;;;1.98;1.75;;;5.20;99.90;;;;;;2066274;28;20272;-73
2024/03/12 05:12:27;;;;;;;2.10;1.60;;;5.30;99.90;;;;;;2067036;28;20225;-73
2024/03/12 05:13:28;;;;;;;1.80;1.50;;;5.30;99.90;;;;;;2075235;28;20321;-73
2024/03/12 05:14:28;;;;;;;1.77;1.20;;;5.30;99.90;;;;;;2066278;28;20275;-72
2024/03/12 05:15:29;;;;;;;1.13;1.00;;;5.30;99.90;;;;;;2067110;28;20221;-71
2024/03/12 05:16:31;;;;;;;1.37;1.20;;;5.30;99.90;;;;;;2070591;28;20293;-72
2024/03/12 05:17:32;;;;;;;2.35;1.20;;;5.30;99.90;;;;;;2074967;28;20278;-73
2024/03/12 05:18:32;;;;;;;3.13;1.47;;;5.20;99.90;;;;;;2072932;28;20218;-73
2024/03/12 05:19:33;;;;;;;1.30;1.13;;;5.20;99.90;;;;;;2058172;28;20286;-73
2024/03/12 05:20:36;;;;;;;2.73;1.50;;;5.30;99.90;;;;;;2058163;28;20223;-72
2024/03/12 05:21:39;;;;;;;1.58;1.30;;;5.30;99.90;;;;;;2066230;28;20221;-73
2024/03/12 05:22:41;;;;;;;1.58;1.30;;;5.30;99.90;;;;;;2063834;28;20237;-72
2024/03/12 05:23:42;;;;;;;1.60;1.17;;;5.20;99.90;;;;;;2069467;28;20742;-72
2024/03/12 05:24:42;;;;;;;1.33;1.13;;;5.30;99.90;;;;;;2067965;28;20221;-72